createdAt,value
2018-12-10T00:02:07.933Z,3.80
2018-12-10T00:04:36.358Z,3.80
2018-12-10T00:07:04.762Z,3.80
2018-12-10T00:09:33.178Z,3.80
2018-12-10T00:12:01.646Z,3.90
2018-12-10T00:14:30.061Z,3.90
2018-12-10T00:16:58.471Z,3.80
2018-12-10T00:19:26.885Z,3.80
2018-12-10T00:21:55.275Z,3.80
2018-12-10T00:24:23.706Z,3.80
2018-12-10T00:26:52.093Z,3.80
2018-12-10T00:29:20.486Z,3.70
2018-12-10T00:31:48.901Z,3.80
2018-12-10T00:34:17.293Z,3.80
2018-12-10T00:36:45.699Z,3.80
2018-12-10T00:39:14.089Z,3.80
2018-12-10T00:41:42.501Z,3.80
2018-12-10T00:44:10.894Z,3.80
2018-12-10T00:46:39.299Z,3.70
2018-12-10T00:49:07.702Z,3.70
2018-12-10T00:51:36.109Z,3.70
2018-12-10T00:54:04.497Z,3.70
2018-12-10T00:56:32.901Z,3.70
2018-12-10T00:59:01.308Z,3.70
2018-12-10T01:01:29.712Z,3.80
2018-12-10T01:03:58.094Z,3.80
2018-12-10T01:06:26.498Z,3.80
2018-12-10T01:08:54.879Z,3.80
2018-12-10T01:11:23.289Z,3.80
2018-12-10T01:13:51.668Z,3.90
2018-12-10T01:16:20.122Z,3.80
2018-12-10T01:18:48.506Z,3.80
2018-12-10T01:21:16.919Z,3.80
2018-12-10T01:23:45.297Z,3.80
2018-12-10T01:26:13.709Z,3.80
2018-12-10T01:28:42.106Z,3.80
2018-12-10T01:31:10.535Z,3.80
2018-12-10T01:33:38.917Z,3.80
2018-12-10T01:36:07.326Z,3.80
2018-12-10T01:38:35.729Z,3.80
2018-12-10T01:41:04.234Z,3.80
2018-12-10T01:43:32.681Z,3.80
2018-12-10T01:46:01.103Z,3.80
2018-12-10T01:48:29.559Z,3.90
2018-12-10T01:50:57.988Z,3.90
2018-12-10T01:53:26.398Z,3.90
2018-12-10T01:55:54.838Z,3.80
2018-12-10T01:58:23.250Z,3.80
2018-12-10T02:00:51.663Z,3.80
2018-12-10T02:03:20.085Z,3.80
2018-12-10T02:05:48.479Z,3.80
2018-12-10T02:08:16.889Z,3.80
2018-12-10T02:10:45.317Z,3.80
2018-12-10T02:13:13.733Z,3.80
2018-12-10T02:15:42.145Z,3.70
2018-12-10T02:18:10.561Z,3.70
2018-12-10T02:20:38.950Z,3.80
2018-12-10T02:23:07.371Z,3.80
2018-12-10T02:25:35.771Z,3.80
2018-12-10T02:28:04.177Z,3.90
2018-12-10T02:30:32.577Z,3.90
2018-12-10T02:33:00.986Z,3.90
2018-12-10T02:35:29.381Z,3.90
2018-12-10T02:37:57.813Z,3.90
2018-12-10T02:40:26.283Z,3.90
2018-12-10T02:42:54.696Z,4.00
2018-12-10T02:45:23.095Z,4.00
2018-12-10T02:47:51.515Z,4.00
2018-12-10T02:50:19.942Z,4.00
2018-12-10T02:52:48.362Z,4.00
2018-12-10T02:55:16.773Z,4.00
2018-12-10T02:57:45.210Z,3.90
2018-12-10T03:00:13.739Z,3.90
2018-12-10T03:02:42.142Z,3.90
2018-12-10T03:05:10.554Z,3.90
2018-12-10T03:07:38.984Z,3.90
2018-12-10T03:10:07.721Z,3.80
2018-12-10T03:12:36.114Z,3.80
2018-12-10T03:15:04.859Z,3.80
2018-12-10T03:17:33.259Z,3.80
2018-12-10T03:20:01.671Z,3.80
2018-12-10T03:22:30.067Z,3.80
2018-12-10T03:24:58.481Z,3.80
2018-12-10T03:27:26.998Z,3.80
2018-12-10T03:29:55.412Z,3.80
2018-12-10T03:32:23.812Z,3.80
2018-12-10T03:34:52.345Z,3.80
2018-12-10T03:37:20.747Z,3.80
2018-12-10T03:39:49.170Z,3.80
2018-12-10T03:42:17.565Z,3.80
2018-12-10T03:44:45.975Z,3.80
2018-12-10T03:47:14.374Z,3.80
2018-12-10T03:49:42.817Z,3.80
2018-12-10T03:52:11.207Z,3.80
2018-12-10T03:54:39.610Z,3.80
2018-12-10T03:57:08.019Z,3.80
2018-12-10T03:59:36.413Z,3.80
2018-12-10T04:02:04.949Z,3.80
2018-12-10T04:04:33.342Z,3.80
2018-12-10T04:07:01.758Z,3.90
2018-12-10T04:09:30.155Z,3.90
2018-12-10T04:11:58.566Z,3.90
2018-12-10T04:14:26.965Z,3.90
2018-12-10T04:16:55.451Z,3.80
2018-12-10T04:19:24.201Z,3.90
2018-12-10T04:21:52.610Z,3.90
2018-12-10T04:24:21.034Z,3.80
2018-12-10T04:26:49.497Z,3.80
2018-12-10T04:29:17.905Z,3.80
2018-12-10T04:31:46.391Z,3.80
2018-12-10T04:34:14.782Z,3.80
2018-12-10T04:36:43.198Z,3.80
2018-12-10T04:39:11.587Z,3.80
2018-12-10T04:41:40.136Z,3.70
2018-12-10T04:44:08.603Z,3.60
2018-12-10T04:46:37.030Z,3.60
2018-12-10T04:49:05.478Z,3.60
2018-12-10T04:51:33.943Z,3.50
2018-12-10T04:54:02.355Z,3.50
2018-12-10T04:56:30.778Z,3.50
2018-12-10T04:58:59.213Z,3.50
2018-12-10T05:01:27.750Z,3.40
2018-12-10T05:03:56.202Z,3.40
2018-12-10T05:06:24.621Z,3.40
2018-12-10T05:08:53.064Z,3.30
2018-12-10T05:11:21.481Z,3.30
2018-12-10T05:13:49.913Z,3.30
2018-12-10T05:16:18.331Z,3.30
2018-12-10T05:18:46.756Z,3.40
2018-12-10T05:21:15.171Z,3.40
2018-12-10T05:23:43.609Z,3.40
2018-12-10T05:26:12.022Z,3.50
2018-12-10T05:28:40.449Z,3.50
2018-12-10T05:31:08.862Z,3.50
2018-12-10T05:33:37.297Z,3.60
2018-12-10T05:36:05.781Z,3.60
2018-12-10T05:38:34.455Z,3.60
2018-12-10T05:41:02.879Z,3.60
2018-12-10T05:43:31.304Z,3.60
2018-12-10T05:45:59.746Z,3.60
2018-12-10T05:48:28.167Z,3.60
2018-12-10T05:50:56.618Z,3.60
2018-12-10T05:53:25.038Z,3.60
2018-12-10T05:55:53.474Z,3.60
2018-12-10T05:58:21.945Z,3.60
2018-12-10T06:00:51.006Z,3.60
2018-12-10T06:03:20.112Z,3.60
2018-12-10T06:05:48.694Z,3.60
2018-12-10T06:08:17.109Z,3.60
2018-12-10T06:10:45.542Z,3.60
2018-12-10T06:13:13.965Z,3.60
2018-12-10T06:15:42.414Z,3.60
2018-12-10T06:18:10.829Z,3.60
2018-12-10T06:20:39.339Z,3.60
2018-12-10T06:23:07.758Z,3.60
2018-12-10T06:25:36.186Z,3.60
2018-12-10T06:28:04.610Z,3.60
2018-12-10T06:30:33.080Z,3.60
2018-12-10T06:33:01.536Z,3.60
2018-12-10T06:35:29.985Z,3.60
2018-12-10T06:37:58.446Z,3.50
2018-12-10T06:40:26.934Z,3.50
2018-12-10T06:42:55.362Z,3.50
2018-12-10T06:45:23.809Z,3.40
2018-12-10T06:47:52.235Z,3.40
2018-12-10T06:50:20.704Z,3.40
2018-12-10T06:52:49.118Z,3.40
2018-12-10T06:55:17.571Z,3.30
2018-12-10T06:57:46.026Z,3.30
2018-12-10T07:00:14.693Z,3.20
2018-12-10T07:02:43.101Z,3.20
2018-12-10T07:05:11.658Z,3.20
2018-12-10T07:07:40.217Z,3.20
2018-12-10T07:10:09.321Z,3.20
2018-12-10T07:12:37.754Z,3.20
2018-12-10T07:15:06.558Z,3.10
2018-12-10T07:17:34.994Z,3.10
2018-12-10T07:20:03.589Z,3.20
2018-12-10T07:22:32.031Z,3.20
2018-12-10T07:25:00.470Z,3.20
2018-12-10T07:27:28.907Z,3.30
2018-12-10T07:29:57.346Z,3.30
2018-12-10T07:32:25.794Z,3.30
2018-12-10T07:34:54.270Z,3.30
2018-12-10T07:37:22.702Z,3.40
2018-12-10T07:39:51.109Z,3.40
2018-12-10T07:42:19.549Z,3.40
2018-12-10T07:44:47.966Z,3.40
2018-12-10T07:47:16.398Z,3.40
2018-12-10T07:49:44.842Z,3.40
2018-12-10T07:52:13.333Z,3.40
2018-12-10T07:54:41.765Z,3.40
2018-12-10T07:57:10.194Z,3.40
2018-12-10T07:59:38.602Z,3.60
2018-12-10T08:02:07.044Z,3.80
2018-12-10T08:04:35.471Z,4.00
2018-12-10T08:07:03.921Z,4.20
2018-12-10T08:09:32.386Z,4.30
2018-12-10T08:12:00.822Z,4.30
2018-12-10T08:14:29.242Z,4.50
2018-12-10T08:16:57.702Z,5.20
2018-12-10T08:19:26.222Z,5.30
2018-12-10T08:21:54.646Z,5.10
2018-12-10T08:24:23.082Z,5.30
2018-12-10T08:26:51.490Z,6.20
2018-12-10T08:29:19.962Z,7.20
2018-12-10T08:31:48.379Z,7.10
2018-12-10T08:34:16.938Z,6.50
2018-12-10T08:36:45.405Z,5.70
2018-12-10T08:39:13.906Z,5.70
2018-12-10T08:41:42.339Z,5.60
2018-12-10T08:44:10.784Z,5.50
2018-12-10T08:46:39.204Z,5.20
2018-12-10T08:49:07.662Z,4.80
2018-12-10T08:51:36.080Z,4.60
2018-12-10T08:54:04.641Z,4.50
2018-12-10T08:56:34.356Z,4.40
2018-12-10T08:59:03.202Z,4.30
2018-12-10T09:01:31.621Z,4.20
2018-12-10T09:04:00.074Z,4.20
2018-12-10T09:06:28.494Z,4.20
2018-12-10T09:08:56.938Z,4.30
2018-12-10T09:11:25.479Z,4.30
2018-12-10T09:13:53.938Z,4.30
2018-12-10T09:16:22.388Z,4.40
2018-12-10T09:18:50.914Z,4.40
2018-12-10T09:21:19.346Z,4.60
2018-12-10T09:23:47.766Z,4.70
2018-12-10T09:26:16.199Z,5.00
2018-12-10T09:28:44.622Z,5.30
2018-12-10T09:31:13.055Z,5.50
2018-12-10T09:33:41.475Z,5.40
2018-12-10T09:36:09.909Z,5.40
2018-12-10T09:38:38.326Z,5.20
2018-12-10T09:41:06.926Z,5.30
2018-12-10T09:43:35.342Z,5.30
2018-12-10T09:46:03.786Z,5.10
2018-12-10T09:48:32.192Z,4.90
2018-12-10T09:51:00.682Z,4.60
2018-12-10T09:53:29.103Z,4.50
2018-12-10T09:55:57.537Z,4.50
2018-12-10T09:58:25.966Z,4.70
2018-12-10T10:00:54.522Z,4.90
2018-12-10T10:03:22.930Z,5.10
2018-12-10T10:05:51.366Z,5.10
2018-12-10T10:08:19.781Z,4.90
2018-12-10T10:10:48.214Z,4.80
2018-12-10T10:13:16.636Z,4.70
2018-12-10T10:15:45.095Z,4.80
2018-12-10T10:18:13.509Z,4.80
2018-12-10T10:20:41.930Z,4.80
2018-12-10T10:23:10.374Z,4.80
2018-12-10T10:25:38.898Z,4.70
2018-12-10T10:28:07.347Z,4.70
2018-12-10T10:30:35.770Z,4.70
2018-12-10T10:33:04.210Z,4.70
2018-12-10T10:35:32.634Z,4.80
2018-12-10T10:38:01.075Z,4.80
2018-12-10T10:40:29.502Z,4.90
2018-12-10T10:42:57.942Z,4.90
2018-12-10T10:45:34.477Z,4.90
2018-12-10T10:47:56.873Z,4.90
2018-12-10T10:50:25.334Z,5.60
2018-12-10T10:52:54.012Z,6.60
2018-12-10T10:55:22.437Z,6.80
2018-12-10T10:57:51.051Z,6.70
2018-12-10T11:00:24.951Z,6.60
2018-12-10T11:02:53.398Z,6.50
2018-12-10T11:05:21.859Z,6.40
2018-12-10T11:07:50.299Z,6.00
2018-12-10T11:10:18.730Z,5.70
2018-12-10T11:12:47.164Z,6.10
2018-12-10T11:15:16.450Z,7.20
2018-12-10T11:17:44.898Z,7.80
2018-12-10T11:20:13.570Z,8.70
2018-12-10T11:22:42.012Z,9.50
2018-12-10T11:25:09.351Z,9.70
2018-12-10T11:27:37.783Z,8.70
2018-12-10T11:30:06.584Z,7.80
2018-12-10T11:32:35.026Z,7.20
2018-12-10T11:35:03.582Z,6.80
2018-12-10T11:37:32.014Z,6.40
2018-12-10T11:40:00.450Z,6.20
2018-12-10T11:42:28.890Z,6.00
2018-12-10T11:44:57.309Z,5.90
2018-12-10T11:47:25.733Z,5.80
2018-12-10T11:49:54.173Z,5.70
2018-12-10T11:52:22.603Z,5.60
2018-12-10T11:54:51.042Z,5.60
2018-12-10T11:57:19.441Z,5.50
2018-12-10T11:59:47.953Z,5.70
2018-12-10T12:02:16.502Z,5.90
2018-12-10T12:04:44.930Z,6.00
2018-12-10T12:07:13.333Z,6.00
2018-12-10T12:09:41.756Z,6.10
2018-12-10T12:12:10.163Z,6.10
2018-12-10T12:14:38.614Z,6.00
2018-12-10T12:17:07.026Z,5.90
2018-12-10T12:19:35.620Z,5.80
2018-12-10T12:22:05.123Z,5.80
2018-12-10T12:24:33.787Z,5.70
2018-12-10T12:27:02.222Z,5.70
2018-12-10T12:29:30.642Z,5.70
2018-12-10T12:31:59.053Z,5.70
2018-12-10T12:34:27.473Z,5.70
2018-12-10T12:36:55.874Z,5.70
2018-12-10T12:39:24.307Z,5.60
2018-12-10T12:41:52.710Z,5.50
2018-12-10T12:44:21.105Z,5.40
2018-12-10T12:46:49.528Z,5.20
2018-12-10T12:49:17.953Z,5.10
2018-12-10T12:51:46.374Z,4.90
2018-12-10T12:54:14.772Z,4.80
2018-12-10T12:56:43.210Z,4.80
2018-12-10T12:59:11.618Z,4.70
2018-12-10T13:01:40.046Z,4.80
2018-12-10T13:04:08.458Z,4.70
2018-12-10T13:06:36.886Z,4.80
2018-12-10T13:09:07.002Z,4.80
2018-12-10T13:11:37.117Z,4.80
2018-12-10T13:14:05.662Z,4.80
2018-12-10T13:16:34.077Z,4.80
2018-12-10T13:19:02.503Z,4.70
2018-12-10T13:21:30.914Z,4.70
2018-12-10T13:23:59.313Z,4.70
2018-12-10T13:26:27.729Z,4.70
2018-12-10T13:28:56.220Z,4.70
2018-12-10T13:31:24.668Z,4.70
2018-12-10T13:33:53.070Z,4.70
2018-12-10T13:36:21.551Z,4.70
2018-12-10T13:38:49.956Z,4.70
2018-12-10T13:41:18.381Z,4.80
2018-12-10T13:43:46.788Z,4.80
2018-12-10T13:46:15.513Z,4.90
2018-12-10T13:48:44.001Z,4.90
2018-12-10T13:51:12.454Z,4.90
2018-12-10T13:53:40.857Z,4.90
2018-12-10T13:56:09.706Z,4.90
2018-12-10T13:58:38.129Z,4.80
2018-12-10T14:01:06.546Z,4.80
2018-12-10T14:03:34.970Z,4.80
2018-12-10T14:06:03.373Z,4.70
2018-12-10T14:08:31.793Z,4.60
2018-12-10T14:11:00.213Z,4.60
2018-12-10T14:13:28.630Z,4.50
2018-12-10T14:15:57.029Z,4.50
2018-12-10T14:18:25.446Z,4.50
2018-12-10T14:20:53.893Z,4.50
2018-12-10T14:23:22.398Z,4.60
2018-12-10T14:25:50.806Z,4.50
2018-12-10T14:28:19.534Z,4.50
2018-12-10T14:30:48.050Z,4.50
2018-12-10T14:33:16.836Z,4.50
2018-12-10T14:35:45.277Z,4.50
2018-12-10T14:38:13.702Z,4.40
2018-12-10T14:40:42.112Z,4.30
2018-12-10T14:43:10.534Z,4.30
2018-12-10T14:45:38.946Z,4.30
2018-12-10T14:48:07.427Z,4.30
2018-12-10T14:50:35.868Z,4.20
2018-12-10T14:53:04.430Z,4.20
2018-12-10T14:55:32.837Z,4.10
2018-12-10T14:58:01.257Z,4.10
2018-12-10T15:00:29.665Z,4.10
2018-12-10T15:02:58.087Z,4.10
2018-12-10T15:05:26.486Z,4.10
2018-12-10T15:07:54.925Z,4.10
2018-12-10T15:10:23.485Z,4.10
2018-12-10T15:12:52.076Z,4.10
2018-12-10T15:15:20.484Z,4.10
2018-12-10T15:17:48.901Z,4.00
2018-12-10T15:20:17.422Z,3.80
2018-12-10T15:22:45.852Z,3.70
2018-12-10T15:25:14.385Z,3.50
2018-12-10T15:27:42.793Z,3.40
2018-12-10T15:30:12.332Z,3.40
2018-12-10T15:32:40.742Z,3.40
2018-12-10T15:35:09.464Z,3.40
2018-12-10T15:37:37.878Z,3.40
2018-12-10T15:40:07.486Z,3.40
2018-12-10T15:42:35.899Z,3.40
2018-12-10T15:45:05.096Z,3.50
2018-12-10T15:47:33.503Z,3.50
2018-12-10T15:50:01.975Z,3.50
2018-12-10T15:52:30.505Z,3.50
2018-12-10T15:54:59.012Z,3.50
2018-12-10T15:57:27.474Z,3.40
2018-12-10T15:59:55.925Z,3.40
2018-12-10T16:02:24.471Z,3.30
2018-12-10T16:04:52.920Z,3.30
2018-12-10T16:07:21.346Z,3.20
2018-12-10T16:09:49.786Z,3.10
2018-12-10T16:12:18.306Z,3.10
2018-12-10T16:14:46.759Z,3.10
2018-12-10T16:17:15.170Z,3.10
2018-12-10T16:19:43.606Z,3.00
2018-12-10T16:22:12.043Z,3.00
2018-12-10T16:24:40.462Z,3.10
2018-12-10T16:27:09.414Z,3.10
2018-12-10T16:29:37.890Z,3.10
2018-12-10T16:32:06.325Z,3.10
2018-12-10T16:34:34.806Z,3.10
2018-12-10T16:37:03.275Z,3.00
2018-12-10T16:39:31.686Z,3.00
2018-12-10T16:42:00.122Z,2.90
2018-12-10T16:44:28.529Z,2.90
2018-12-10T16:46:56.970Z,2.80
2018-12-10T16:49:25.470Z,2.90
2018-12-10T16:51:53.914Z,2.80
2018-12-10T16:54:22.351Z,2.80
2018-12-10T16:56:50.910Z,2.80
2018-12-10T16:59:19.316Z,2.70
2018-12-10T17:01:47.754Z,2.70
2018-12-10T17:04:16.169Z,2.70
2018-12-10T17:06:44.602Z,2.80
2018-12-10T17:09:13.447Z,2.80
2018-12-10T17:11:42.323Z,2.90
2018-12-10T17:14:10.849Z,2.90
2018-12-10T17:16:39.262Z,2.90
2018-12-10T17:19:07.701Z,2.90
2018-12-10T17:21:36.229Z,3.00
2018-12-10T17:24:04.781Z,2.90
2018-12-10T17:26:33.208Z,2.90
2018-12-10T17:29:01.658Z,2.90
2018-12-10T17:31:30.075Z,2.80
2018-12-10T17:33:58.601Z,2.80
2018-12-10T17:36:27.141Z,2.80
2018-12-10T17:38:55.571Z,2.80
2018-12-10T17:41:24.125Z,2.80
2018-12-10T17:43:52.666Z,2.70
2018-12-10T17:46:21.098Z,2.70
2018-12-10T17:48:49.530Z,2.60
2018-12-10T17:51:17.952Z,2.60
2018-12-10T17:53:46.689Z,2.60
2018-12-10T17:56:15.093Z,2.60
2018-12-10T17:58:43.631Z,2.60
2018-12-10T18:01:12.241Z,2.60
2018-12-10T18:03:40.661Z,2.50
2018-12-10T18:06:09.063Z,2.50
2018-12-10T18:08:37.499Z,2.60
2018-12-10T18:11:05.908Z,2.50
2018-12-10T18:13:34.340Z,2.50
2018-12-10T18:16:02.738Z,2.50
2018-12-10T18:18:31.142Z,2.50
2018-12-10T18:20:59.591Z,2.50
2018-12-10T18:23:27.995Z,2.50
2018-12-10T18:25:56.412Z,2.50
2018-12-10T18:28:24.814Z,2.50
2018-12-10T18:30:53.370Z,2.50
2018-12-10T18:33:21.773Z,2.50
2018-12-10T18:35:50.330Z,2.60
2018-12-10T18:38:18.738Z,2.60
2018-12-10T18:40:47.194Z,2.60
2018-12-10T18:43:15.694Z,2.60
2018-12-10T18:45:44.113Z,2.60
2018-12-10T18:48:12.710Z,2.60
2018-12-10T18:50:41.155Z,2.60
2018-12-10T18:53:09.570Z,2.60
2018-12-10T18:55:38.007Z,2.60
2018-12-10T18:58:06.431Z,2.50
2018-12-10T19:00:34.860Z,2.50
2018-12-10T19:03:03.271Z,2.40
2018-12-10T19:05:31.711Z,2.40
2018-12-10T19:08:00.121Z,2.40
2018-12-10T19:10:28.673Z,2.40
2018-12-10T19:12:57.210Z,2.40
2018-12-10T19:15:25.636Z,2.40
2018-12-10T19:17:54.049Z,2.40
2018-12-10T19:20:22.503Z,2.40
2018-12-10T19:22:50.973Z,2.40
2018-12-10T19:25:19.419Z,2.40
2018-12-10T19:27:47.943Z,2.30
2018-12-10T19:30:16.415Z,2.30
2018-12-10T19:32:44.838Z,2.30
2018-12-10T19:35:13.286Z,2.30
2018-12-10T19:37:41.720Z,2.30
2018-12-10T19:40:10.134Z,2.30
2018-12-10T19:42:38.570Z,2.30
2018-12-10T19:45:08.309Z,2.30
2018-12-10T19:47:36.806Z,2.30
2018-12-10T19:50:06.233Z,2.20
2018-12-10T19:52:34.684Z,2.20
2018-12-10T19:55:03.526Z,2.10
2018-12-10T19:57:32.091Z,2.10
2018-12-10T20:00:00.516Z,2.00
2018-12-10T20:02:29.186Z,2.00
2018-12-10T20:04:57.610Z,2.10
2018-12-10T20:07:26.084Z,2.10
2018-12-10T20:09:54.497Z,2.10
2018-12-10T20:12:22.939Z,2.20
2018-12-10T20:14:51.362Z,2.20
2018-12-10T20:17:19.803Z,2.30
2018-12-10T20:19:48.282Z,2.20
2018-12-10T20:22:16.769Z,2.30
2018-12-10T20:24:45.213Z,2.30
2018-12-10T20:27:13.677Z,2.30
2018-12-10T20:29:42.115Z,2.30
2018-12-10T20:32:10.594Z,2.30
2018-12-10T20:34:39.036Z,2.30
2018-12-10T20:37:07.490Z,2.30
2018-12-10T20:39:35.923Z,2.20
2018-12-10T20:42:04.609Z,2.20
2018-12-10T20:44:33.052Z,2.20
2018-12-10T20:47:01.457Z,2.30
2018-12-10T20:49:29.919Z,2.30
2018-12-10T20:51:58.321Z,2.40
2018-12-10T20:54:26.759Z,2.40
2018-12-10T20:56:55.158Z,2.30
2018-12-10T20:59:23.593Z,2.30
2018-12-10T21:01:51.998Z,2.20
2018-12-10T21:04:20.426Z,2.20
2018-12-10T21:06:48.838Z,2.10
2018-12-10T21:09:17.287Z,2.10
2018-12-10T21:11:45.697Z,2.10
2018-12-10T21:14:14.130Z,2.20
2018-12-10T21:16:42.574Z,2.20
2018-12-10T21:19:11.001Z,2.20
2018-12-10T21:21:39.417Z,2.20
2018-12-10T21:24:07.842Z,2.20
2018-12-10T21:26:36.250Z,2.10
2018-12-10T21:29:04.680Z,2.10
2018-12-10T21:31:33.111Z,2.10
2018-12-10T21:34:01.545Z,2.10
2018-12-10T21:36:29.962Z,2.10
2018-12-10T21:38:58.424Z,2.00
2018-12-10T21:41:26.833Z,2.10
2018-12-10T21:43:55.380Z,2.10
2018-12-10T21:46:23.794Z,2.10
2018-12-10T21:48:52.218Z,2.10
2018-12-10T21:51:20.690Z,2.10
2018-12-10T21:53:49.143Z,2.10
2018-12-10T21:56:17.678Z,2.10
2018-12-10T21:58:46.102Z,2.10
2018-12-10T22:01:14.558Z,2.10
2018-12-10T22:03:42.975Z,2.10
2018-12-10T22:06:11.421Z,2.10
2018-12-10T22:08:39.847Z,2.20
2018-12-10T22:11:08.286Z,2.20
2018-12-10T22:13:36.713Z,2.20
2018-12-10T22:16:05.280Z,2.30
2018-12-10T22:18:33.698Z,2.30
2018-12-10T22:21:02.170Z,2.30
2018-12-10T22:23:30.638Z,2.20
2018-12-10T22:25:59.080Z,2.20
2018-12-10T22:28:27.489Z,2.20
2018-12-10T22:30:55.926Z,2.20
2018-12-10T22:33:24.385Z,2.30
2018-12-10T22:35:52.818Z,2.20
2018-12-10T22:38:21.234Z,2.20
2018-12-10T22:40:49.670Z,2.20
2018-12-10T22:43:18.090Z,2.20
2018-12-10T22:45:46.669Z,2.30
2018-12-10T22:48:15.081Z,2.20
2018-12-10T22:50:43.534Z,2.20
2018-12-10T22:53:11.938Z,2.20
2018-12-10T22:55:40.478Z,2.20
2018-12-10T22:58:09.006Z,2.30
2018-12-10T23:00:47.109Z,2.20
2018-12-10T23:03:15.633Z,2.20
2018-12-10T23:05:44.058Z,2.20
2018-12-10T23:08:12.459Z,2.20
2018-12-10T23:10:40.865Z,2.30
2018-12-10T23:13:09.284Z,2.30
2018-12-10T23:15:37.750Z,2.40
2018-12-10T23:18:06.211Z,2.30
2018-12-10T23:20:34.620Z,2.30
2018-12-10T23:23:03.203Z,2.30
2018-12-10T23:25:31.610Z,2.30
2018-12-10T23:28:00.079Z,2.30
2018-12-10T23:30:28.524Z,2.30
2018-12-10T23:32:57.024Z,2.30
2018-12-10T23:35:25.450Z,2.20
2018-12-10T23:37:53.870Z,2.20
2018-12-10T23:40:22.394Z,2.20
2018-12-10T23:42:56.069Z,2.20
2018-12-10T23:45:24.479Z,2.20
2018-12-10T23:47:52.917Z,2.30
2018-12-10T23:50:21.350Z,2.20
2018-12-10T23:52:49.778Z,2.30
2018-12-10T23:55:18.186Z,2.30
2018-12-10T23:57:46.598Z,2.30
